sensor_id;sensor_type;location;lat;lon;timestamp;P1;durP1;ratioP1;P2;durP2;ratioP2
66870;SDS011;53780;44.998;9.926;2023-02-01T00:02:46;49.38;;;19.65;;
66870;SDS011;53780;44.998;9.926;2023-02-01T00:05:56;34.58;;;15.52;;
66870;SDS011;53780;44.998;9.926;2023-02-01T00:09:01;41.42;;;15.77;;
66870;SDS011;53780;44.998;9.926;2023-02-01T00:12:06;35.92;;;15.25;;
66870;SDS011;53780;44.998;9.926;2023-02-01T00:15:10;41.42;;;16.55;;
66870;SDS011;53780;44.998;9.926;2023-02-01T00:18:14;38.58;;;16.42;;
66870;SDS011;53780;44.998;9.926;2023-02-01T00:21:19;34.78;;;14.88;;
66870;SDS011;53780;44.998;9.926;2023-02-01T00:24:24;33.22;;;13.82;;
66870;SDS011;53780;44.998;9.926;2023-02-01T00:27:27;34.35;;;14.25;;
66870;SDS011;53780;44.998;9.926;2023-02-01T00:30:31;40.40;;;15.32;;
66870;SDS011;53780;44.998;9.926;2023-02-01T00:33:35;38.10;;;14.38;;
66870;SDS011;53780;44.998;9.926;2023-02-01T00:36:39;38.40;;;14.63;;
66870;SDS011;53780;44.998;9.926;2023-02-01T00:39:43;36.47;;;13.93;;
66870;SDS011;53780;44.998;9.926;2023-02-01T00:42:47;34.80;;;14.55;;
66870;SDS011;53780;44.998;9.926;2023-02-01T00:45:52;35.75;;;14.02;;
66870;SDS011;53780;44.998;9.926;2023-02-01T00:48:56;34.95;;;14.02;;
66870;SDS011;53780;44.998;9.926;2023-02-01T00:52:01;34.58;;;13.82;;
66870;SDS011;53780;44.998;9.926;2023-02-01T00:55:04;36.38;;;14.00;;
66870;SDS011;53780;44.998;9.926;2023-02-01T00:58:09;36.42;;;14.65;;
66870;SDS011;53780;44.998;9.926;2023-02-01T01:01:17;34.22;;;14.15;;
66870;SDS011;53780;44.998;9.926;2023-02-01T01:04:29;37.35;;;14.73;;
66870;SDS011;53780;44.998;9.926;2023-02-01T01:07:32;33.05;;;13.40;;
66870;SDS011;53780;44.998;9.926;2023-02-01T01:10:36;36.33;;;14.40;;
66870;SDS011;53780;44.998;9.926;2023-02-01T01:13:41;33.88;;;13.80;;
66870;SDS011;53780;44.998;9.926;2023-02-01T01:16:45;33.08;;;12.88;;
66870;SDS011;53780;44.998;9.926;2023-02-01T01:19:49;35.20;;;13.65;;
66870;SDS011;53780;44.998;9.926;2023-02-01T01:22:52;32.40;;;13.35;;
66870;SDS011;53780;44.998;9.926;2023-02-01T01:25:56;32.10;;;12.10;;
66870;SDS011;53780;44.998;9.926;2023-02-01T01:29:00;32.78;;;12.57;;
66870;SDS011;53780;44.998;9.926;2023-02-01T01:32:04;30.05;;;12.43;;
66870;SDS011;53780;44.998;9.926;2023-02-01T01:35:08;31.50;;;12.80;;
66870;SDS011;53780;44.998;9.926;2023-02-01T01:38:13;32.63;;;13.10;;
66870;SDS011;53780;44.998;9.926;2023-02-01T01:41:21;33.75;;;13.13;;
66870;SDS011;53780;44.998;9.926;2023-02-01T01:48:14;37.20;;;14.23;;
66870;SDS011;53780;44.998;9.926;2023-02-01T01:51:23;43.60;;;16.23;;
66870;SDS011;53780;44.998;9.926;2023-02-01T01:54:31;37.63;;;15.85;;
66870;SDS011;53780;44.998;9.926;2023-02-01T01:57:39;37.22;;;15.32;;
66870;SDS011;53780;44.998;9.926;2023-02-01T02:00:47;40.28;;;15.75;;
66870;SDS011;53780;44.998;9.926;2023-02-01T02:03:51;32.97;;;14.60;;
66870;SDS011;53780;44.998;9.926;2023-02-01T02:07:30;34.08;;;14.02;;
66870;SDS011;53780;44.998;9.926;2023-02-01T02:10:30;32.22;;;12.63;;
66870;SDS011;53780;44.998;9.926;2023-02-01T02:13:53;31.83;;;12.77;;
66870;SDS011;53780;44.998;9.926;2023-02-01T02:37:46;36.25;;;13.25;;
66870;SDS011;53780;44.998;9.926;2023-02-01T02:41:20;31.23;;;12.52;;
66870;SDS011;53780;44.998;9.926;2023-02-01T02:45:12;27.70;;;11.60;;
66870;SDS011;53780;44.998;9.926;2023-02-01T02:48:52;27.23;;;11.02;;
66870;SDS011;53780;44.998;9.926;2023-02-01T02:52:06;27.45;;;10.75;;
66870;SDS011;53780;44.998;9.926;2023-02-01T02:55:45;28.20;;;10.55;;
66870;SDS011;53780;44.998;9.926;2023-02-01T02:58:50;26.73;;;10.80;;
66870;SDS011;53780;44.998;9.926;2023-02-01T03:02:14;31.50;;;10.93;;
66870;SDS011;53780;44.998;9.926;2023-02-01T03:05:39;28.55;;;11.15;;
66870;SDS011;53780;44.998;9.926;2023-02-01T03:08:45;26.00;;;10.77;;
66870;SDS011;53780;44.998;9.926;2023-02-01T03:11:49;31.13;;;11.00;;
66870;SDS011;53780;44.998;9.926;2023-02-01T03:15:16;25.92;;;10.85;;
66870;SDS011;53780;44.998;9.926;2023-02-01T03:18:30;25.85;;;10.73;;
66870;SDS011;53780;44.998;9.926;2023-02-01T03:21:55;25.80;;;10.30;;
66870;SDS011;53780;44.998;9.926;2023-02-01T03:25:08;24.67;;;10.63;;
66870;SDS011;53780;44.998;9.926;2023-02-01T03:28:17;26.00;;;10.25;;
66870;SDS011;53780;44.998;9.926;2023-02-01T03:31:25;29.20;;;11.07;;
66870;SDS011;53780;44.998;9.926;2023-02-01T03:34:31;28.58;;;11.15;;
66870;SDS011;53780;44.998;9.926;2023-02-01T03:37:36;27.33;;;10.68;;
66870;SDS011;53780;44.998;9.926;2023-02-01T03:40:40;27.75;;;10.15;;
66870;SDS011;53780;44.998;9.926;2023-02-01T03:43:58;29.75;;;11.07;;
66870;SDS011;53780;44.998;9.926;2023-02-01T03:47:22;29.67;;;11.65;;
66870;SDS011;53780;44.998;9.926;2023-02-01T03:50:28;34.25;;;12.43;;
66870;SDS011;53780;44.998;9.926;2023-02-01T03:53:35;31.05;;;12.48;;
66870;SDS011;53780;44.998;9.926;2023-02-01T03:56:42;29.10;;;11.27;;
66870;SDS011;53780;44.998;9.926;2023-02-01T03:59:49;27.73;;;10.70;;
66870;SDS011;53780;44.998;9.926;2023-02-01T04:02:53;30.10;;;11.65;;
66870;SDS011;53780;44.998;9.926;2023-02-01T04:05:57;29.83;;;11.82;;
66870;SDS011;53780;44.998;9.926;2023-02-01T04:09:04;35.70;;;12.60;;
66870;SDS011;53780;44.998;9.926;2023-02-01T04:12:08;27.88;;;11.35;;
66870;SDS011;53780;44.998;9.926;2023-02-01T04:15:11;28.85;;;10.45;;
66870;SDS011;53780;44.998;9.926;2023-02-01T04:18:15;29.92;;;11.52;;
66870;SDS011;53780;44.998;9.926;2023-02-01T04:21:19;27.83;;;11.05;;
66870;SDS011;53780;44.998;9.926;2023-02-01T04:24:23;25.98;;;10.40;;
66870;SDS011;53780;44.998;9.926;2023-02-01T04:27:27;29.23;;;10.50;;
66870;SDS011;53780;44.998;9.926;2023-02-01T04:30:30;27.80;;;10.57;;
66870;SDS011;53780;44.998;9.926;2023-02-01T04:33:37;30.25;;;11.88;;
66870;SDS011;53780;44.998;9.926;2023-02-01T04:36:41;30.98;;;11.20;;
66870;SDS011;53780;44.998;9.926;2023-02-01T04:39:45;31.52;;;11.52;;
66870;SDS011;53780;44.998;9.926;2023-02-01T04:42:49;31.38;;;12.00;;
66870;SDS011;53780;44.998;9.926;2023-02-01T04:45:53;35.40;;;12.85;;
66870;SDS011;53780;44.998;9.926;2023-02-01T04:48:57;32.05;;;12.05;;
66870;SDS011;53780;44.998;9.926;2023-02-01T04:52:01;27.15;;;10.80;;
66870;SDS011;53780;44.998;9.926;2023-02-01T04:55:06;26.48;;;10.00;;
66870;SDS011;53780;44.998;9.926;2023-02-01T04:58:10;28.08;;;10.90;;
66870;SDS011;53780;44.998;9.926;2023-02-01T05:01:14;29.02;;;10.88;;
66870;SDS011;53780;44.998;9.926;2023-02-01T05:04:18;27.90;;;10.05;;
66870;SDS011;53780;44.998;9.926;2023-02-01T05:07:22;27.00;;;10.30;;
66870;SDS011;53780;44.998;9.926;2023-02-01T05:10:26;25.88;;;10.77;;
66870;SDS011;53780;44.998;9.926;2023-02-01T05:13:30;28.92;;;9.98;;
66870;SDS011;53780;44.998;9.926;2023-02-01T05:16:52;30.15;;;11.05;;
66870;SDS011;53780;44.998;9.926;2023-02-01T05:19:55;25.92;;;10.40;;
66870;SDS011;53780;44.998;9.926;2023-02-01T05:22:59;32.50;;;9.77;;
66870;SDS011;53780;44.998;9.926;2023-02-01T05:26:03;23.20;;;9.15;;
66870;SDS011;53780;44.998;9.926;2023-02-01T05:29:07;25.85;;;9.43;;
66870;SDS011;53780;44.998;9.926;2023-02-01T05:32:12;26.67;;;9.20;;
66870;SDS011;53780;44.998;9.926;2023-02-01T05:35:16;26.45;;;10.15;;
66870;SDS011;53780;44.998;9.926;2023-02-01T05:38:20;28.45;;;9.57;;
66870;SDS011;53780;44.998;9.926;2023-02-01T05:41:23;25.98;;;9.18;;
66870;SDS011;53780;44.998;9.926;2023-02-01T05:44:27;23.27;;;9.02;;
66870;SDS011;53780;44.998;9.926;2023-02-01T05:47:31;25.25;;;8.65;;
66870;SDS011;53780;44.998;9.926;2023-02-01T05:50:35;21.42;;;8.07;;
66870;SDS011;53780;44.998;9.926;2023-02-01T05:53:46;19.70;;;7.82;;
66870;SDS011;53780;44.998;9.926;2023-02-01T05:56:50;23.30;;;8.27;;
66870;SDS011;53780;44.998;9.926;2023-02-01T05:59:53;22.10;;;9.05;;
66870;SDS011;53780;44.998;9.926;2023-02-01T06:02:57;22.30;;;8.23;;
66870;SDS011;53780;44.998;9.926;2023-02-01T06:06:01;23.10;;;7.93;;
66870;SDS011;53780;44.998;9.926;2023-02-01T06:09:05;22.40;;;8.38;;
66870;SDS011;53780;44.998;9.926;2023-02-01T06:12:09;22.95;;;8.43;;
66870;SDS011;53780;44.998;9.926;2023-02-01T06:15:13;20.67;;;7.40;;
66870;SDS011;53780;44.998;9.926;2023-02-01T06:18:21;22.35;;;7.78;;
66870;SDS011;53780;44.998;9.926;2023-02-01T06:21:25;20.95;;;7.63;;
66870;SDS011;53780;44.998;9.926;2023-02-01T06:24:29;25.73;;;8.35;;
66870;SDS011;53780;44.998;9.926;2023-02-01T06:27:33;36.17;;;13.10;;
66870;SDS011;53780;44.998;9.926;2023-02-01T06:30:37;50.22;;;15.25;;
66870;SDS011;53780;44.998;9.926;2023-02-01T06:33:44;76.30;;;20.33;;
66870;SDS011;53780;44.998;9.926;2023-02-01T06:36:50;76.45;;;21.65;;
66870;SDS011;53780;44.998;9.926;2023-02-01T06:39:54;60.60;;;18.27;;
66870;SDS011;53780;44.998;9.926;2023-02-01T06:42:58;72.50;;;20.75;;
66870;SDS011;53780;44.998;9.926;2023-02-01T06:46:03;60.60;;;18.23;;
66870;SDS011;53780;44.998;9.926;2023-02-01T06:49:11;52.15;;;16.05;;
66870;SDS011;53780;44.998;9.926;2023-02-01T06:52:15;52.05;;;15.57;;
66870;SDS011;53780;44.998;9.926;2023-02-01T06:55:19;60.38;;;17.45;;
66870;SDS011;53780;44.998;9.926;2023-02-01T06:58:23;42.10;;;13.93;;
66870;SDS011;53780;44.998;9.926;2023-02-01T07:01:27;34.70;;;11.18;;
66870;SDS011;53780;44.998;9.926;2023-02-01T07:04:31;29.15;;;10.73;;
66870;SDS011;53780;44.998;9.926;2023-02-01T07:07:35;24.30;;;8.27;;
66870;SDS011;53780;44.998;9.926;2023-02-01T07:10:38;25.30;;;8.80;;
66870;SDS011;53780;44.998;9.926;2023-02-01T07:13:42;24.15;;;8.05;;
66870;SDS011;53780;44.998;9.926;2023-02-01T07:16:46;29.92;;;9.35;;
66870;SDS011;53780;44.998;9.926;2023-02-01T07:19:50;20.10;;;7.15;;
66870;SDS011;53780;44.998;9.926;2023-02-01T07:22:54;23.58;;;8.20;;
66870;SDS011;53780;44.998;9.926;2023-02-01T07:26:01;24.13;;;7.82;;
66870;SDS011;53780;44.998;9.926;2023-02-01T07:29:06;23.92;;;8.02;;
66870;SDS011;53780;44.998;9.926;2023-02-01T07:32:10;25.95;;;10.00;;
66870;SDS011;53780;44.998;9.926;2023-02-01T07:35:14;18.73;;;7.03;;
66870;SDS011;53780;44.998;9.926;2023-02-01T07:38:18;20.70;;;6.35;;
66870;SDS011;53780;44.998;9.926;2023-02-01T07:41:25;16.35;;;6.18;;
66870;SDS011;53780;44.998;9.926;2023-02-01T07:44:28;15.13;;;5.63;;
66870;SDS011;53780;44.998;9.926;2023-02-01T07:47:32;13.20;;;4.90;;
66870;SDS011;53780;44.998;9.926;2023-02-01T07:50:36;14.32;;;5.47;;
66870;SDS011;53780;44.998;9.926;2023-02-01T07:53:40;13.23;;;5.18;;
66870;SDS011;53780;44.998;9.926;2023-02-01T07:56:44;16.38;;;5.75;;
66870;SDS011;53780;44.998;9.926;2023-02-01T07:59:48;17.75;;;6.30;;
66870;SDS011;53780;44.998;9.926;2023-02-01T08:03:16;17.80;;;6.90;;
66870;SDS011;53780;44.998;9.926;2023-02-01T08:06:20;18.25;;;6.88;;
66870;SDS011;53780;44.998;9.926;2023-02-01T08:09:25;16.23;;;6.60;;
66870;SDS011;53780;44.998;9.926;2023-02-01T08:12:28;20.02;;;7.25;;
66870;SDS011;53780;44.998;9.926;2023-02-01T08:15:33;22.92;;;8.30;;
66870;SDS011;53780;44.998;9.926;2023-02-01T08:18:37;21.90;;;8.02;;
66870;SDS011;53780;44.998;9.926;2023-02-01T08:21:42;23.25;;;8.52;;
66870;SDS011;53780;44.998;9.926;2023-02-01T08:24:48;20.88;;;7.70;;
66870;SDS011;53780;44.998;9.926;2023-02-01T08:27:53;20.23;;;7.53;;
66870;SDS011;53780;44.998;9.926;2023-02-01T08:30:57;21.85;;;8.07;;
66870;SDS011;53780;44.998;9.926;2023-02-01T08:34:01;22.70;;;8.13;;
66870;SDS011;53780;44.998;9.926;2023-02-01T08:37:09;21.55;;;9.55;;
66870;SDS011;53780;44.998;9.926;2023-02-01T08:40:13;20.02;;;7.80;;
66870;SDS011;53780;44.998;9.926;2023-02-01T08:43:18;19.45;;;8.38;;
66870;SDS011;53780;44.998;9.926;2023-02-01T08:46:22;18.30;;;8.90;;
66870;SDS011;53780;44.998;9.926;2023-02-01T08:49:27;20.55;;;9.45;;
66870;SDS011;53780;44.998;9.926;2023-02-01T08:52:30;20.42;;;9.90;;
66870;SDS011;53780;44.998;9.926;2023-02-01T08:55:34;21.02;;;10.93;;
66870;SDS011;53780;44.998;9.926;2023-02-01T08:58:38;21.17;;;10.63;;
66870;SDS011;53780;44.998;9.926;2023-02-01T09:01:43;22.57;;;12.70;;
66870;SDS011;53780;44.998;9.926;2023-02-01T09:04:46;22.55;;;12.25;;
66870;SDS011;53780;44.998;9.926;2023-02-01T09:07:50;20.92;;;11.68;;
66870;SDS011;53780;44.998;9.926;2023-02-01T09:10:57;22.45;;;12.10;;
66870;SDS011;53780;44.998;9.926;2023-02-01T09:14:05;27.08;;;13.73;;
66870;SDS011;53780;44.998;9.926;2023-02-01T09:17:09;25.87;;;14.57;;
66870;SDS011;53780;44.998;9.926;2023-02-01T09:20:13;29.02;;;13.32;;
66870;SDS011;53780;44.998;9.926;2023-02-01T09:23:17;23.02;;;12.32;;
66870;SDS011;53780;44.998;9.926;2023-02-01T09:26:21;28.63;;;15.23;;
66870;SDS011;53780;44.998;9.926;2023-02-01T09:29:24;22.45;;;14.20;;
66870;SDS011;53780;44.998;9.926;2023-02-01T09:32:28;25.00;;;15.07;;
66870;SDS011;53780;44.998;9.926;2023-02-01T09:35:32;27.98;;;15.55;;
66870;SDS011;53780;44.998;9.926;2023-02-01T09:38:36;27.92;;;16.45;;
66870;SDS011;53780;44.998;9.926;2023-02-01T09:41:43;29.92;;;16.58;;
66870;SDS011;53780;44.998;9.926;2023-02-01T09:49:11;25.60;;;15.43;;
66870;SDS011;53780;44.998;9.926;2023-02-01T09:52:20;30.70;;;16.33;;
66870;SDS011;53780;44.998;9.926;2023-02-01T09:55:43;27.73;;;15.57;;
66870;SDS011;53780;44.998;9.926;2023-02-01T09:58:52;28.45;;;16.40;;
66870;SDS011;53780;44.998;9.926;2023-02-01T10:02:00;26.90;;;16.48;;
66870;SDS011;53780;44.998;9.926;2023-02-01T10:05:10;29.20;;;17.40;;
66870;SDS011;53780;44.998;9.926;2023-02-01T10:11:53;26.88;;;16.67;;
66870;SDS011;53780;44.998;9.926;2023-02-01T10:18:42;30.08;;;18.73;;
66870;SDS011;53780;44.998;9.926;2023-02-01T10:28:29;32.72;;;18.95;;
66870;SDS011;53780;44.998;9.926;2023-02-01T10:31:39;30.42;;;19.23;;
66870;SDS011;53780;44.998;9.926;2023-02-01T10:34:44;32.92;;;20.38;;
66870;SDS011;53780;44.998;9.926;2023-02-01T10:37:53;31.90;;;19.53;;
66870;SDS011;53780;44.998;9.926;2023-02-01T10:41:02;33.97;;;20.00;;
66870;SDS011;53780;44.998;9.926;2023-02-01T10:44:16;36.03;;;20.02;;
66870;SDS011;53780;44.998;9.926;2023-02-01T10:47:23;33.88;;;20.45;;
66870;SDS011;53780;44.998;9.926;2023-02-01T10:54:08;33.93;;;19.10;;
66870;SDS011;53780;44.998;9.926;2023-02-01T10:57:23;33.63;;;19.65;;
66870;SDS011;53780;44.998;9.926;2023-02-01T11:00:34;34.95;;;19.40;;
66870;SDS011;53780;44.998;9.926;2023-02-01T11:03:58;32.15;;;19.08;;
66870;SDS011;53780;44.998;9.926;2023-02-01T11:07:07;30.52;;;18.60;;
66870;SDS011;53780;44.998;9.926;2023-02-01T11:10:38;33.10;;;18.70;;
66870;SDS011;53780;44.998;9.926;2023-02-01T11:13:44;31.98;;;18.55;;
66870;SDS011;53780;44.998;9.926;2023-02-01T11:20:19;35.08;;;18.48;;
66870;SDS011;53780;44.998;9.926;2023-02-01T11:23:30;36.60;;;19.02;;
66870;SDS011;53780;44.998;9.926;2023-02-01T11:26:38;34.03;;;18.40;;
66870;SDS011;53780;44.998;9.926;2023-02-01T11:29:45;36.03;;;19.33;;
66870;SDS011;53780;44.998;9.926;2023-02-01T11:32:52;35.42;;;18.48;;
66870;SDS011;53780;44.998;9.926;2023-02-01T11:35:57;37.05;;;18.52;;
66870;SDS011;53780;44.998;9.926;2023-02-01T11:42:18;32.20;;;17.30;;
66870;SDS011;53780;44.998;9.926;2023-02-01T11:45:29;34.75;;;18.52;;
66870;SDS011;53780;44.998;9.926;2023-02-01T11:48:34;35.65;;;18.42;;
66870;SDS011;53780;44.998;9.926;2023-02-01T11:51:44;36.83;;;18.98;;
66870;SDS011;53780;44.998;9.926;2023-02-01T12:05:06;33.78;;;15.40;;
66870;SDS011;53780;44.998;9.926;2023-02-01T12:08:53;35.47;;;17.10;;
66870;SDS011;53780;44.998;9.926;2023-02-01T12:19:44;35.67;;;15.15;;
66870;SDS011;53780;44.998;9.926;2023-02-01T12:33:38;33.17;;;16.80;;
66870;SDS011;53780;44.998;9.926;2023-02-01T12:43:57;31.88;;;14.98;;
66870;SDS011;53780;44.998;9.926;2023-02-01T12:47:15;30.98;;;14.68;;
66870;SDS011;53780;44.998;9.926;2023-02-01T13:07:21;36.50;;;16.57;;
66870;SDS011;53780;44.998;9.926;2023-02-01T13:17:04;35.50;;;16.58;;
66870;SDS011;53780;44.998;9.926;2023-02-01T13:23:29;33.77;;;16.37;;
66870;SDS011;53780;44.998;9.926;2023-02-01T13:26:37;33.90;;;16.58;;
66870;SDS011;53780;44.998;9.926;2023-02-01T13:29:50;33.08;;;16.50;;
66870;SDS011;53780;44.998;9.926;2023-02-01T13:43:04;32.92;;;16.17;;
66870;SDS011;53780;44.998;9.926;2023-02-01T13:46:15;35.78;;;16.05;;
66870;SDS011;53780;44.998;9.926;2023-02-01T13:49:25;32.38;;;15.98;;
66870;SDS011;53780;44.998;9.926;2023-02-01T13:52:34;33.63;;;16.17;;
66870;SDS011;53780;44.998;9.926;2023-02-01T13:55:41;34.97;;;16.73;;
66870;SDS011;53780;44.998;9.926;2023-02-01T13:58:48;36.13;;;16.80;;
66870;SDS011;53780;44.998;9.926;2023-02-01T14:01:53;32.25;;;15.43;;
66870;SDS011;53780;44.998;9.926;2023-02-01T14:04:57;32.72;;;16.13;;
66870;SDS011;53780;44.998;9.926;2023-02-01T14:11:31;31.47;;;15.03;;
66870;SDS011;53780;44.998;9.926;2023-02-01T14:14:43;34.15;;;14.57;;
66870;SDS011;53780;44.998;9.926;2023-02-01T14:17:47;31.40;;;14.50;;
66870;SDS011;53780;44.998;9.926;2023-02-01T14:20:51;30.42;;;14.88;;
66870;SDS011;53780;44.998;9.926;2023-02-01T14:24:33;30.25;;;14.73;;
66870;SDS011;53780;44.998;9.926;2023-02-01T14:27:39;29.03;;;15.30;;
66870;SDS011;53780;44.998;9.926;2023-02-01T14:30:43;32.85;;;15.82;;
66870;SDS011;53780;44.998;9.926;2023-02-01T14:33:47;34.58;;;16.17;;
66870;SDS011;53780;44.998;9.926;2023-02-01T14:37:01;31.60;;;15.38;;
66870;SDS011;53780;44.998;9.926;2023-02-01T14:43:48;30.07;;;15.30;;
66870;SDS011;53780;44.998;9.926;2023-02-01T14:53:41;28.95;;;14.75;;
66870;SDS011;53780;44.998;9.926;2023-02-01T14:56:46;31.05;;;14.65;;
66870;SDS011;53780;44.998;9.926;2023-02-01T14:59:55;32.97;;;15.40;;
66870;SDS011;53780;44.998;9.926;2023-02-01T15:06:42;31.23;;;15.07;;
66870;SDS011;53780;44.998;9.926;2023-02-01T15:09:51;35.85;;;15.70;;
66870;SDS011;53780;44.998;9.926;2023-02-01T15:12:56;39.50;;;16.65;;
66870;SDS011;53780;44.998;9.926;2023-02-01T15:16:01;48.73;;;20.90;;
66870;SDS011;53780;44.998;9.926;2023-02-01T15:19:13;35.05;;;16.55;;
66870;SDS011;53780;44.998;9.926;2023-02-01T15:22:18;32.55;;;15.30;;
66870;SDS011;53780;44.998;9.926;2023-02-01T15:25:29;29.75;;;14.13;;
66870;SDS011;53780;44.998;9.926;2023-02-01T15:28:34;29.35;;;14.30;;
66870;SDS011;53780;44.998;9.926;2023-02-01T15:31:39;31.83;;;14.10;;
66870;SDS011;53780;44.998;9.926;2023-02-01T15:34:49;30.70;;;13.98;;
66870;SDS011;53780;44.998;9.926;2023-02-01T15:37:53;28.45;;;14.07;;
66870;SDS011;53780;44.998;9.926;2023-02-01T15:41:32;25.83;;;12.77;;
66870;SDS011;53780;44.998;9.926;2023-02-01T15:44:43;26.80;;;13.02;;
66870;SDS011;53780;44.998;9.926;2023-02-01T15:47:52;46.77;;;18.27;;
66870;SDS011;53780;44.998;9.926;2023-02-01T15:50:58;34.53;;;14.27;;
66870;SDS011;53780;44.998;9.926;2023-02-01T15:54:06;29.65;;;13.00;;
66870;SDS011;53780;44.998;9.926;2023-02-01T15:57:26;27.73;;;13.57;;
66870;SDS011;53780;44.998;9.926;2023-02-01T16:00:56;29.88;;;13.45;;
66870;SDS011;53780;44.998;9.926;2023-02-01T16:04:33;26.93;;;13.40;;
66870;SDS011;53780;44.998;9.926;2023-02-01T16:07:33;27.70;;;13.48;;
66870;SDS011;53780;44.998;9.926;2023-02-01T16:10:38;27.90;;;12.55;;
66870;SDS011;53780;44.998;9.926;2023-02-01T16:13:48;31.48;;;15.20;;
66870;SDS011;53780;44.998;9.926;2023-02-01T16:16:53;35.45;;;17.88;;
66870;SDS011;53780;44.998;9.926;2023-02-01T16:19:58;29.97;;;14.20;;
66870;SDS011;53780;44.998;9.926;2023-02-01T16:23:02;29.05;;;14.30;;
66870;SDS011;53780;44.998;9.926;2023-02-01T16:26:07;31.00;;;13.10;;
66870;SDS011;53780;44.998;9.926;2023-02-01T16:29:10;33.28;;;15.73;;
66870;SDS011;53780;44.998;9.926;2023-02-01T16:32:18;38.22;;;16.30;;
66870;SDS011;53780;44.998;9.926;2023-02-01T16:38:34;32.67;;;16.65;;
66870;SDS011;53780;44.998;9.926;2023-02-01T16:41:38;35.00;;;16.27;;
66870;SDS011;53780;44.998;9.926;2023-02-01T16:44:42;40.67;;;16.48;;
66870;SDS011;53780;44.998;9.926;2023-02-01T16:47:50;33.70;;;15.70;;
66870;SDS011;53780;44.998;9.926;2023-02-01T16:51:10;40.63;;;18.73;;
66870;SDS011;53780;44.998;9.926;2023-02-01T16:54:16;38.55;;;17.75;;
66870;SDS011;53780;44.998;9.926;2023-02-01T16:57:20;38.05;;;17.05;;
66870;SDS011;53780;44.998;9.926;2023-02-01T17:00:29;34.58;;;15.50;;
66870;SDS011;53780;44.998;9.926;2023-02-01T17:03:34;38.03;;;16.85;;
66870;SDS011;53780;44.998;9.926;2023-02-01T17:06:38;43.07;;;17.57;;
66870;SDS011;53780;44.998;9.926;2023-02-01T17:09:43;62.38;;;26.63;;
66870;SDS011;53780;44.998;9.926;2023-02-01T17:12:47;52.28;;;20.95;;
66870;SDS011;53780;44.998;9.926;2023-02-01T17:16:18;48.00;;;20.25;;
66870;SDS011;53780;44.998;9.926;2023-02-01T17:19:21;41.65;;;18.38;;
66870;SDS011;53780;44.998;9.926;2023-02-01T17:22:26;40.70;;;18.50;;
66870;SDS011;53780;44.998;9.926;2023-02-01T17:25:30;46.30;;;20.65;;
66870;SDS011;53780;44.998;9.926;2023-02-01T17:28:34;42.70;;;20.75;;
66870;SDS011;53780;44.998;9.926;2023-02-01T17:31:39;37.25;;;17.85;;
66870;SDS011;53780;44.998;9.926;2023-02-01T17:34:46;36.15;;;16.45;;
66870;SDS011;53780;44.998;9.926;2023-02-01T17:37:50;37.67;;;17.13;;
66870;SDS011;53780;44.998;9.926;2023-02-01T17:40:55;38.00;;;17.17;;
66870;SDS011;53780;44.998;9.926;2023-02-01T17:43:59;35.45;;;15.57;;
66870;SDS011;53780;44.998;9.926;2023-02-01T17:47:03;36.90;;;16.27;;
66870;SDS011;53780;44.998;9.926;2023-02-01T17:50:07;33.85;;;14.77;;
66870;SDS011;53780;44.998;9.926;2023-02-01T17:53:11;37.70;;;16.17;;
66870;SDS011;53780;44.998;9.926;2023-02-01T17:56:17;36.20;;;15.15;;
66870;SDS011;53780;44.998;9.926;2023-02-01T17:59:22;33.20;;;14.00;;
66870;SDS011;53780;44.998;9.926;2023-02-01T18:02:26;36.55;;;14.43;;
66870;SDS011;53780;44.998;9.926;2023-02-01T18:08:45;40.40;;;18.07;;
66870;SDS011;53780;44.998;9.926;2023-02-01T18:11:49;40.70;;;17.63;;
66870;SDS011;53780;44.998;9.926;2023-02-01T18:14:53;41.05;;;19.42;;
66870;SDS011;53780;44.998;9.926;2023-02-01T18:17:57;38.45;;;16.38;;
66870;SDS011;53780;44.998;9.926;2023-02-01T18:21:02;33.72;;;15.55;;
66870;SDS011;53780;44.998;9.926;2023-02-01T18:24:06;38.77;;;15.90;;
66870;SDS011;53780;44.998;9.926;2023-02-01T18:27:11;39.50;;;17.70;;
66870;SDS011;53780;44.998;9.926;2023-02-01T18:30:15;35.85;;;17.05;;
66870;SDS011;53780;44.998;9.926;2023-02-01T18:33:19;39.08;;;17.23;;
66870;SDS011;53780;44.998;9.926;2023-02-01T18:36:23;35.72;;;16.75;;
66870;SDS011;53780;44.998;9.926;2023-02-01T18:39:28;41.63;;;18.80;;
66870;SDS011;53780;44.998;9.926;2023-02-01T18:42:31;53.42;;;24.27;;
66870;SDS011;53780;44.998;9.926;2023-02-01T18:45:36;52.10;;;23.15;;
66870;SDS011;53780;44.998;9.926;2023-02-01T18:48:42;50.45;;;22.77;;
66870;SDS011;53780;44.998;9.926;2023-02-01T18:51:46;46.10;;;21.73;;
66870;SDS011;53780;44.998;9.926;2023-02-01T18:54:50;49.60;;;20.80;;
66870;SDS011;53780;44.998;9.926;2023-02-01T18:57:54;42.92;;;19.65;;
66870;SDS011;53780;44.998;9.926;2023-02-01T19:01:03;38.78;;;16.85;;
66870;SDS011;53780;44.998;9.926;2023-02-01T19:04:09;40.45;;;17.63;;
66870;SDS011;53780;44.998;9.926;2023-02-01T19:07:14;41.50;;;17.88;;
66870;SDS011;53780;44.998;9.926;2023-02-01T19:10:20;38.53;;;16.40;;
66870;SDS011;53780;44.998;9.926;2023-02-01T19:13:25;38.92;;;17.15;;
66870;SDS011;53780;44.998;9.926;2023-02-01T19:16:33;44.95;;;21.05;;
66870;SDS011;53780;44.998;9.926;2023-02-01T19:19:42;49.78;;;23.63;;
66870;SDS011;53780;44.998;9.926;2023-02-01T19:22:48;49.40;;;22.48;;
66870;SDS011;53780;44.998;9.926;2023-02-01T19:25:52;41.50;;;19.60;;
66870;SDS011;53780;44.998;9.926;2023-02-01T19:28:57;39.42;;;18.27;;
66870;SDS011;53780;44.998;9.926;2023-02-01T19:32:01;36.42;;;17.38;;
66870;SDS011;53780;44.998;9.926;2023-02-01T19:35:06;34.83;;;16.48;;
66870;SDS011;53780;44.998;9.926;2023-02-01T19:38:11;34.45;;;16.20;;
66870;SDS011;53780;44.998;9.926;2023-02-01T19:41:14;36.20;;;15.93;;
66870;SDS011;53780;44.998;9.926;2023-02-01T19:44:18;42.08;;;16.48;;
66870;SDS011;53780;44.998;9.926;2023-02-01T19:47:22;42.25;;;18.15;;
66870;SDS011;53780;44.998;9.926;2023-02-01T19:50:26;36.00;;;17.40;;
66870;SDS011;53780;44.998;9.926;2023-02-01T19:53:31;37.22;;;17.05;;
66870;SDS011;53780;44.998;9.926;2023-02-01T19:56:35;106.03;;;29.40;;
66870;SDS011;53780;44.998;9.926;2023-02-01T19:59:40;126.60;;;35.65;;
66870;SDS011;53780;44.998;9.926;2023-02-01T20:02:45;113.55;;;38.03;;
66870;SDS011;53780;44.998;9.926;2023-02-01T20:05:50;76.00;;;31.88;;
66870;SDS011;53780;44.998;9.926;2023-02-01T20:08:57;56.33;;;25.13;;
66870;SDS011;53780;44.998;9.926;2023-02-01T20:12:02;70.82;;;28.75;;
66870;SDS011;53780;44.998;9.926;2023-02-01T20:15:10;65.60;;;27.65;;
66870;SDS011;53780;44.998;9.926;2023-02-01T20:18:15;56.22;;;25.00;;
66870;SDS011;53780;44.998;9.926;2023-02-01T20:21:18;47.67;;;21.48;;
66870;SDS011;53780;44.998;9.926;2023-02-01T20:24:26;41.15;;;19.00;;
66870;SDS011;53780;44.998;9.926;2023-02-01T20:27:29;39.83;;;16.75;;
66870;SDS011;53780;44.998;9.926;2023-02-01T20:30:33;34.63;;;16.15;;
66870;SDS011;53780;44.998;9.926;2023-02-01T20:33:37;34.33;;;15.90;;
66870;SDS011;53780;44.998;9.926;2023-02-01T20:36:41;35.17;;;15.13;;
66870;SDS011;53780;44.998;9.926;2023-02-01T20:39:45;31.48;;;13.65;;
66870;SDS011;53780;44.998;9.926;2023-02-01T20:42:49;30.87;;;13.53;;
66870;SDS011;53780;44.998;9.926;2023-02-01T20:45:53;31.38;;;13.27;;
66870;SDS011;53780;44.998;9.926;2023-02-01T20:48:57;28.05;;;11.60;;